EDT,Max TemperatureF,Mean TemperatureF,Min TemperatureF,Max Dew PointF,MeanDew PointF,Min DewpointF,Max Humidity, Mean Humidity, Min Humidity, Max Sea Level PressureIn, Mean Sea Level PressureIn, Min Sea Level PressureIn, Max VisibilityMiles, Mean VisibilityMiles, Min VisibilityMiles, Max Wind SpeedMPH, Mean Wind SpeedMPH, Max Gust SpeedMPH,PrecipitationIn, CloudCover, Events, WindDirDegrees
2013-9-1,86,77,68,72,70,68,99,87,54,29.88,29.84,29.78,10,6,1,15,6,,0.63,7,Rain-Thunderstorm,190
2013-9-2,71,69,67,72,69,68,100,99,92,29.86,29.80,29.72,10,3,0,10,5,,1.89,8,Fog-Rain-Thunderstorm,108
2013-9-3,80,72,64,72,67,58,100,90,67,29.78,29.73,29.68,10,6,0,10,3,,0.01,6,Fog-Rain,249
2013-9-4,81,70,60,59,56,53,90,65,40,29.89,29.84,29.79,10,10,10,13,8,,0.00,1,,257
2013-9-5,66,58,51,61,53,41,89,74,55,30.14,29.96,29.86,10,10,7,13,5,22,0.01,5,Rain,339
2013-9-6,69,56,45,45,41,36,85,57,32,30.24,30.16,30.07,10,10,10,8,5,,0.00,1,,256
2013-9-7,79,64,50,58,49,45,82,60,36,30.06,29.94,29.83,10,10,10,10,7,,0.00,5,Rain,243
2013-9-8,73,62,50,56,47,37,70,55,34,30.08,29.85,29.73,10,10,10,21,9,28,0.00,4,,280
2013-9-9,70,56,44,50,43,38,92,63,35,30.23,30.16,30.10,10,10,10,10,5,,0.00,5,,238
2013-9-10,72,63,54,70,62,47,100,87,76,30.14,30.07,30.02,10,9,7,12,6,21,0.06,7,Rain,198
2013-9-11,94,81,68,74,70,64,100,78,46,30.05,29.99,29.91,10,6,0,15,6,22,0.00,5,Fog-Rain-Thunderstorm,236
2013-9-12,84,74,66,73,69,66,100,89,70,29.93,29.78,29.66,10,7,0,23,6,33,1.63,7,Rain-Thunderstorm,216
2013-9-13,74,65,57,68,65,54,100,94,78,29.74,29.62,29.56,10,5,0,14,5,,1.22,7,Rain-Thunderstorm,187
2013-9-14,68,61,52,55,53,49,100,80,57,30.04,29.88,29.75,10,9,3,12,6,,0.12,6,Rain,280
2013-9-15,70,60,49,51,48,44,92,69,42,30.15,30.08,30.03,10,10,10,10,6,,0.00,4,,241
2013-9-16,67,56,46,54,48,34,87,73,55,30.27,30.07,30.00,10,10,10,15,7,,0.00,5,Rain,275
2013-9-17,64,50,38,46,38,33,87,62,38,30.42,30.35,30.28,10,10,10,13,8,18,0.00,0,,303
2013-9-18,73,58,43,50,45,41,97,67,32,30.31,30.22,30.12,10,10,10,9,4,,0.00,0,,234
2013-9-19,73,60,48,54,49,45,96,69,37,30.13,30.09,30.03,10,10,10,9,5,,0.00,0,,247
2013-9-20,72,60,49,57,54,49,100,83,47,30.10,30.04,30.01,10,9,3,10,3,,0.00,3,,44
2013-9-21,73,60,48,63,56,48,100,93,67,30.03,29.93,29.74,10,4,0,14,5,,0.00,7,Fog,183
2013-9-22,72,62,52,65,57,42,98,80,47,29.80,29.66,29.59,10,9,2,21,11,28,0.64,6,Rain-Thunderstorm,225
2013-9-23,61,52,44,41,39,38,79,63,45,29.99,29.90,29.82,10,10,10,18,10,22,0.00,0,,290
2013-9-24,64,54,43,46,41,38,88,69,41,29.97,29.89,29.82,10,10,10,15,8,,0.00,2,,281
2013-9-25,62,52,43,50,45,42,98,76,54,29.99,29.92,29.88,10,10,10,10,4,,0.00,4,,327
2013-9-26,64,56,47,50,47,44,88,69,52,30.14,30.05,30.00,10,10,10,10,5,,0.00,4,,3
2013-9-27,67,59,52,52,50,48,99,72,54,30.26,30.20,30.14,10,10,10,8,6,,0.00,4,,350
2013-9-28,70,58,48,55,51,48,100,84,52,30.34,30.29,30.26,10,8,0,12,4,,0.00,1,Fog,327
2013-9-29,65,56,46,62,49,44,100,91,47,30.27,30.20,30.12,10,5,0,10,3,,0.00,3,Fog,126
2013-9-30,63,54,45,58,48,45,100,93,57,30.14,30.07,29.98,10,5,0,8,3,,0.00,5,Fog,297